UPS3190 MHLM-KMIA
Flight info
| Callsign | UPS3190 |
|---|---|
| Flight time | N/A |
| Altitude | 37000 |
| Route | KIRAP1 KIRAP UG521 CZM UB881 CUN UM219 XOPGI UB646 CANOA SNDBR3 |
| Aircraft | B752/M-SDE2E3FGHIJ3J4J7RWXY/LB1 |
Departure
| Time | 2026-04-19 05:11 |
|---|---|
| Airport | Ramón Villeda Morales International Airport (MHLM) |
Arrival
| Time | N/A |
|---|---|
| Airport | Miami International Airport (KMIA) |
| Time | Latitude | Longitude | Altitude | Speed | Heading |
|---|---|---|---|---|---|
| 2026-04-19 04:51 | 15.46251 | -87.91975 | 103 ft | 0 kts | 310° |
| 2026-04-19 04:52 | 15.46245 | -87.91967 | 103 ft | 3 kts | 294° |
| 2026-04-19 04:52 | 15.46241 | -87.91951 | 103 ft | 2 kts | 272° |
| 2026-04-19 04:53 | 15.46242 | -87.91935 | 103 ft | 2 kts | 251° |
| 2026-04-19 04:53 | 15.46250 | -87.91921 | 103 ft | 2 kts | 229° |
| 2026-04-19 04:53 | 15.46261 | -87.91910 | 103 ft | 2 kts | 214° |
| 2026-04-19 04:53 | 15.46274 | -87.91901 | 103 ft | 2 kts | 219° |
| 2026-04-19 04:54 | 15.46285 | -87.91891 | 103 ft | 2 kts | 218° |
| 2026-04-19 04:54 | 15.46298 | -87.91881 | 103 ft | 2 kts | 218° |
| 2026-04-19 04:54 | 15.46310 | -87.91871 | 103 ft | 2 kts | 218° |
| 2026-04-19 04:54 | 15.46319 | -87.91864 | 103 ft | 0 kts | 218° |
| 2026-04-19 04:59 | 15.46318 | -87.91864 | 103 ft | 0 kts | 218° |
| 2026-04-19 04:59 | 15.46306 | -87.91873 | 103 ft | 2 kts | 217° |
| 2026-04-19 05:00 | 15.46292 | -87.91885 | 103 ft | 3 kts | 217° |
| 2026-04-19 05:00 | 15.46275 | -87.91885 | 103 ft | 2 kts | 162° |
| 2026-04-19 05:00 | 15.46255 | -87.91872 | 103 ft | 4 kts | 141° |
| 2026-04-19 05:00 | 15.46231 | -87.91846 | 103 ft | 5 kts | 131° |
| 2026-04-19 05:01 | 15.46206 | -87.91816 | 103 ft | 5 kts | 129° |
| 2026-04-19 05:01 | 15.46183 | -87.91789 | 103 ft | 4 kts | 136° |
| 2026-04-19 05:01 | 15.46152 | -87.91773 | 103 ft | 5 kts | 175° |
| 2026-04-19 05:01 | 15.46116 | -87.91781 | 103 ft | 5 kts | 201° |
| 2026-04-19 05:02 | 15.46083 | -87.91803 | 103 ft | 5 kts | 217° |
| 2026-04-19 05:02 | 15.46051 | -87.91829 | 103 ft | 5 kts | 218° |
| 2026-04-19 05:02 | 15.46017 | -87.91857 | 103 ft | 6 kts | 219° |
| 2026-04-19 05:02 | 15.45977 | -87.91891 | 103 ft | 7 kts | 220° |
| 2026-04-19 05:03 | 15.45932 | -87.91931 | 103 ft | 8 kts | 220° |
| 2026-04-19 05:03 | 15.45883 | -87.91974 | 103 ft | 9 kts | 220° |
| 2026-04-19 05:03 | 15.45829 | -87.92022 | 103 ft | 10 kts | 219° |
| 2026-04-19 05:03 | 15.45774 | -87.92069 | 104 ft | 9 kts | 220° |
| 2026-04-19 05:04 | 15.45721 | -87.92115 | 106 ft | 9 kts | 220° |
| 2026-04-19 05:04 | 15.45670 | -87.92159 | 107 ft | 9 kts | 220° |
| 2026-04-19 05:04 | 15.45611 | -87.92211 | 107 ft | 11 kts | 220° |
| 2026-04-19 05:04 | 15.45546 | -87.92268 | 107 ft | 12 kts | 220° |
| 2026-04-19 05:05 | 15.45476 | -87.92330 | 107 ft | 13 kts | 220° |
| 2026-04-19 05:05 | 15.45403 | -87.92395 | 107 ft | 14 kts | 220° |
| 2026-04-19 05:05 | 15.45325 | -87.92463 | 107 ft | 14 kts | 219° |
| 2026-04-19 05:05 | 15.45241 | -87.92535 | 107 ft | 15 kts | 220° |
| 2026-04-19 05:06 | 15.45154 | -87.92611 | 107 ft | 16 kts | 219° |
| 2026-04-19 05:06 | 15.45064 | -87.92686 | 107 ft | 17 kts | 218° |
| 2026-04-19 05:06 | 15.44968 | -87.92766 | 107 ft | 17 kts | 220° |
| 2026-04-19 05:06 | 15.44878 | -87.92850 | 109 ft | 17 kts | 223° |
| 2026-04-19 05:07 | 15.44789 | -87.92935 | 110 ft | 17 kts | 222° |
| 2026-04-19 05:07 | 15.44700 | -87.93012 | 110 ft | 15 kts | 218° |
| 2026-04-19 05:07 | 15.44610 | -87.93086 | 110 ft | 16 kts | 219° |
| 2026-04-19 05:07 | 15.44526 | -87.93160 | 112 ft | 14 kts | 220° |
| 2026-04-19 05:08 | 15.44450 | -87.93227 | 113 ft | 13 kts | 220° |
| 2026-04-19 05:08 | 15.44341 | -87.93322 | 113 ft | 6 kts | 219° |
| 2026-04-19 05:08 | 15.44301 | -87.93348 | 114 ft | 6 kts | 200° |
| 2026-04-19 05:09 | 15.44279 | -87.93349 | 115 ft | 0 kts | 161° |
| 2026-04-19 05:09 | 15.44276 | -87.93348 | 115 ft | 2 kts | 156° |
| 2026-04-19 05:09 | 15.44257 | -87.93329 | 115 ft | 5 kts | 121° |
| 2026-04-19 05:10 | 15.44246 | -87.93288 | 115 ft | 6 kts | 99° |
| 2026-04-19 05:10 | 15.44256 | -87.93242 | 115 ft | 6 kts | 57° |
| 2026-04-19 05:10 | 15.44277 | -87.93220 | 114 ft | 0 kts | 40° |
| 2026-04-19 05:10 | 15.44409 | -87.93105 | 113 ft | 54 kts | 40° |
| 2026-04-19 05:11 | 15.44860 | -87.92712 | 109 ft | 111 kts | 40° |
| 2026-04-19 05:11 | 15.45604 | -87.92062 | 107 ft | 163 kts | 40° |
| 2026-04-19 05:11 | 15.46583 | -87.91215 | 353 ft | 190 kts | 38° |
| 2026-04-19 05:11 | 15.47706 | -87.90347 | 973 ft | 199 kts | 34° |
| 2026-04-19 05:12 | 15.48705 | -87.89497 | 1460 ft | 189 kts | 41° |
| 2026-04-19 05:12 | 15.49764 | -87.88504 | 1555 ft | 213 kts | 40° |
| 2026-04-19 05:12 | 15.50919 | -87.87462 | 1990 ft | 221 kts | 40° |
| 2026-04-19 05:12 | 15.52196 | -87.86328 | 2123 ft | 246 kts | 40° |
| 2026-04-19 05:13 | 15.53520 | -87.85163 | 2782 ft | 247 kts | 40° |
| 2026-04-19 05:13 | 15.54859 | -87.83991 | 3394 ft | 251 kts | 40° |
| 2026-04-19 05:13 | 15.56220 | -87.82800 | 4008 ft | 254 kts | 40° |
| 2026-04-19 05:13 | 15.57596 | -87.81599 | 4655 ft | 256 kts | 40° |
| 2026-04-19 05:14 | 15.58967 | -87.80403 | 5286 ft | 258 kts | 40° |
| 2026-04-19 05:14 | 15.60372 | -87.79178 | 5911 ft | 260 kts | 40° |
| 2026-04-19 05:14 | 15.61765 | -87.77963 | 6522 ft | 263 kts | 40° |
| 2026-04-19 05:14 | 15.63180 | -87.76729 | 7133 ft | 265 kts | 40° |
| 2026-04-19 05:15 | 15.64625 | -87.75468 | 7747 ft | 268 kts | 40° |
| 2026-04-19 05:15 | 15.66078 | -87.74200 | 8350 ft | 271 kts | 40° |
| 2026-04-19 05:15 | 15.67536 | -87.72928 | 8943 ft | 273 kts | 41° |
| 2026-04-19 05:15 | 15.69027 | -87.71628 | 9536 ft | 276 kts | 40° |
| 2026-04-19 05:16 | 15.70710 | -87.70637 | 10088 ft | 282 kts | 17° |
| 2026-04-19 05:16 | 15.72747 | -87.70301 | 10184 ft | 305 kts | 5° |
| 2026-04-19 05:16 | 15.74989 | -87.70132 | 10205 ft | 329 kts | 5° |
| 2026-04-19 05:16 | 15.77377 | -87.69946 | 10222 ft | 352 kts | 5° |
| 2026-04-19 05:17 | 15.79917 | -87.69754 | 10335 ft | 370 kts | 5° |
| 2026-04-19 05:17 | 15.82525 | -87.69560 | 10940 ft | 373 kts | 5° |
| 2026-04-19 05:17 | 15.85122 | -87.69368 | 11490 ft | 376 kts | 5° |
| 2026-04-19 05:17 | 15.87787 | -87.69171 | 12021 ft | 380 kts | 5° |
| 2026-04-19 05:18 | 15.90437 | -87.68975 | 12571 ft | 382 kts | 5° |
| 2026-04-19 05:18 | 15.93131 | -87.68776 | 13102 ft | 384 kts | 5° |
| 2026-04-19 05:18 | 15.95852 | -87.68574 | 13623 ft | 387 kts | 5° |
| 2026-04-19 05:18 | 15.98555 | -87.68375 | 14125 ft | 389 kts | 5° |
| 2026-04-19 05:19 | 16.01316 | -87.68170 | 14621 ft | 391 kts | 5° |
| 2026-04-19 05:19 | 16.04062 | -87.67967 | 15101 ft | 394 kts | 5° |
| 2026-04-19 05:19 | 16.06826 | -87.67762 | 15574 ft | 396 kts | 5° |
| 2026-04-19 05:19 | 16.09607 | -87.67556 | 16042 ft | 398 kts | 5° |
| 2026-04-19 05:20 | 16.12431 | -87.67347 | 16510 ft | 400 kts | 5° |
| 2026-04-19 05:20 | 16.15233 | -87.67139 | 16968 ft | 402 kts | 5° |
| 2026-04-19 05:20 | 16.18080 | -87.66929 | 17426 ft | 405 kts | 5° |
| 2026-04-19 05:20 | 16.20934 | -87.66718 | 17871 ft | 407 kts | 5° |
| 2026-04-19 05:21 | 16.23794 | -87.66505 | 18305 ft | 409 kts | 5° |
| 2026-04-19 05:21 | 16.26664 | -87.66293 | 18731 ft | 411 kts | 5° |
| 2026-04-19 05:21 | 16.29581 | -87.66076 | 19154 ft | 413 kts | 5° |
| 2026-04-19 05:21 | 16.32451 | -87.65863 | 19562 ft | 415 kts | 5° |
| 2026-04-19 05:22 | 16.35353 | -87.65647 | 19968 ft | 418 kts | 5° |
| 2026-04-19 05:22 | 16.38302 | -87.65428 | 20374 ft | 420 kts | 5° |
| 2026-04-19 05:22 | 16.41234 | -87.65210 | 20769 ft | 422 kts | 5° |
| 2026-04-19 05:22 | 16.44180 | -87.64991 | 21160 ft | 424 kts | 4° |
| 2026-04-19 05:23 | 16.47142 | -87.64771 | 21549 ft | 426 kts | 4° |
| 2026-04-19 05:23 | 16.50093 | -87.64552 | 21932 ft | 428 kts | 4° |
| 2026-04-19 05:23 | 16.53097 | -87.64328 | 22320 ft | 430 kts | 4° |
| 2026-04-19 05:23 | 16.56089 | -87.64105 | 22705 ft | 433 kts | 4° |
| 2026-04-19 05:24 | 16.59100 | -87.63882 | 23092 ft | 435 kts | 4° |
| 2026-04-19 05:24 | 16.62184 | -87.63652 | 23484 ft | 437 kts | 4° |
| 2026-04-19 05:24 | 16.65239 | -87.63424 | 23863 ft | 440 kts | 4° |
| 2026-04-19 05:24 | 16.68326 | -87.63194 | 24236 ft | 442 kts | 4° |
| 2026-04-19 05:25 | 16.71402 | -87.62965 | 24599 ft | 444 kts | 4° |
| 2026-04-19 05:25 | 16.74488 | -87.62735 | 24954 ft | 446 kts | 4° |
| 2026-04-19 05:25 | 16.77638 | -87.62500 | 25307 ft | 449 kts | 4° |
| 2026-04-19 05:25 | 16.80758 | -87.62267 | 25642 ft | 451 kts | 4° |
| 2026-04-19 05:26 | 16.83928 | -87.62030 | 25971 ft | 453 kts | 4° |
| 2026-04-19 05:26 | 16.87128 | -87.61791 | 26294 ft | 455 kts | 4° |
| 2026-04-19 05:26 | 16.90339 | -87.61552 | 26608 ft | 457 kts | 4° |
| 2026-04-19 05:26 | 16.93569 | -87.61311 | 26917 ft | 459 kts | 4° |
| 2026-04-19 05:27 | 16.96768 | -87.61071 | 27215 ft | 461 kts | 4° |
| 2026-04-19 05:27 | 17.00008 | -87.60828 | 27441 ft | 465 kts | 3° |
| 2026-04-19 05:27 | 17.03324 | -87.60580 | 27464 ft | 474 kts | 3° |
| 2026-04-19 05:27 | 17.06676 | -87.60258 | 27784 ft | 476 kts | 7° |
| 2026-04-19 05:28 | 17.09988 | -87.59657 | 28075 ft | 478 kts | 9° |
| 2026-04-19 05:28 | 17.13343 | -87.59020 | 28381 ft | 480 kts | 9° |
| 2026-04-19 05:28 | 17.16654 | -87.58391 | 28663 ft | 482 kts | 9° |
| 2026-04-19 05:28 | 17.19984 | -87.57755 | 28961 ft | 484 kts | 9° |
| 2026-04-19 05:29 | 17.23324 | -87.57115 | 29247 ft | 485 kts | 9° |
| 2026-04-19 05:29 | 17.26699 | -87.56467 | 29541 ft | 487 kts | 9° |
| 2026-04-19 05:29 | 17.30057 | -87.55822 | 29828 ft | 489 kts | 9° |
| 2026-04-19 05:29 | 17.33457 | -87.55168 | 30227 ft | 488 kts | 9° |
| 2026-04-19 05:30 | 17.36824 | -87.54520 | 30627 ft | 487 kts | 9° |
| 2026-04-19 05:30 | 17.40206 | -87.53869 | 31043 ft | 485 kts | 9° |
| 2026-04-19 05:30 | 17.43539 | -87.53227 | 31444 ft | 484 kts | 9° |
| 2026-04-19 05:30 | 17.46893 | -87.52580 | 31852 ft | 483 kts | 9° |
| 2026-04-19 05:31 | 17.50274 | -87.51929 | 32260 ft | 481 kts | 9° |
| 2026-04-19 05:31 | 17.53574 | -87.51292 | 32671 ft | 480 kts | 9° |
| 2026-04-19 05:31 | 17.56917 | -87.50647 | 33089 ft | 479 kts | 9° |
| 2026-04-19 05:31 | 17.60230 | -87.50008 | 33514 ft | 477 kts | 9° |
| 2026-04-19 05:32 | 17.63564 | -87.49364 | 33961 ft | 475 kts | 9° |
| 2026-04-19 05:32 | 17.66828 | -87.48734 | 34375 ft | 474 kts | 9° |
| 2026-04-19 05:32 | 17.70119 | -87.48097 | 34791 ft | 473 kts | 9° |
| 2026-04-19 05:32 | 17.73403 | -87.47463 | 35205 ft | 472 kts | 9° |
| 2026-04-19 05:33 | 17.76660 | -87.46833 | 35587 ft | 471 kts | 9° |
| 2026-04-19 05:33 | 17.79941 | -87.46198 | 35947 ft | 470 kts | 9° |
| 2026-04-19 05:33 | 17.83135 | -87.45580 | 36264 ft | 469 kts | 9° |
| 2026-04-19 05:33 | 17.86410 | -87.44946 | 36544 ft | 469 kts | 9° |
| 2026-04-19 05:34 | 17.89607 | -87.44327 | 36794 ft | 469 kts | 9° |
| 2026-04-19 05:34 | 17.92832 | -87.43702 | 36964 ft | 469 kts | 9° |
| 2026-04-19 05:34 | 17.96117 | -87.43066 | 36966 ft | 469 kts | 9° |
| 2026-04-19 05:35 | 18.02530 | -87.41821 | 36966 ft | 468 kts | 9° |
| 2026-04-19 05:35 | 18.08990 | -87.40569 | 36966 ft | 468 kts | 9° |
| 2026-04-19 05:36 | 18.15462 | -87.39312 | 36967 ft | 468 kts | 9° |
| 2026-04-19 05:36 | 18.21968 | -87.38048 | 36967 ft | 468 kts | 9° |
| 2026-04-19 05:37 | 18.28482 | -87.36781 | 36967 ft | 468 kts | 9° |
| 2026-04-19 05:37 | 18.34970 | -87.35519 | 36967 ft | 468 kts | 9° |
| 2026-04-19 05:38 | 18.41438 | -87.34258 | 36965 ft | 468 kts | 10° |
| 2026-04-19 05:38 | 18.47922 | -87.32994 | 36965 ft | 468 kts | 9° |
| 2026-04-19 05:39 | 18.54344 | -87.31520 | 36966 ft | 468 kts | 12° |
| 2026-04-19 05:39 | 18.60785 | -87.30115 | 36965 ft | 468 kts | 10° |
| 2026-04-19 05:40 | 18.67219 | -87.28752 | 36965 ft | 468 kts | 11° |
| 2026-04-19 05:40 | 18.73672 | -87.27399 | 36966 ft | 468 kts | 11° |
| 2026-04-19 05:41 | 18.80155 | -87.26050 | 36978 ft | 468 kts | 10° |
| 2026-04-19 05:41 | 18.86667 | -87.24698 | 36988 ft | 468 kts | 10° |
| 2026-04-19 05:42 | 18.93169 | -87.23347 | 36996 ft | 469 kts | 10° |
| 2026-04-19 05:42 | 18.99697 | -87.21992 | 37006 ft | 473 kts | 10° |
| 2026-04-19 05:43 | 19.06302 | -87.20620 | 37019 ft | 478 kts | 10° |
| 2026-04-19 05:43 | 19.12903 | -87.19247 | 37017 ft | 477 kts | 10° |
| 2026-04-19 05:44 | 19.19485 | -87.17877 | 37017 ft | 477 kts | 10° |
| 2026-04-19 05:44 | 19.26075 | -87.16504 | 37017 ft | 477 kts | 10° |
| 2026-04-19 05:45 | 19.32644 | -87.15209 | 37018 ft | 476 kts | 8° |
| 2026-04-19 05:45 | 19.39249 | -87.13969 | 37017 ft | 477 kts | 9° |
| 2026-04-19 05:46 | 19.45847 | -87.12637 | 37017 ft | 477 kts | 9° |
| 2026-04-19 05:46 | 19.52474 | -87.11267 | 37017 ft | 477 kts | 10° |
| 2026-04-19 05:47 | 19.59007 | -87.09906 | 37018 ft | 477 kts | 10° |
| 2026-04-19 05:47 | 19.65619 | -87.08524 | 37018 ft | 477 kts | 10° |
| 2026-04-19 05:48 | 19.72197 | -87.07146 | 37018 ft | 477 kts | 10° |
| 2026-04-19 05:48 | 19.78803 | -87.05761 | 37018 ft | 478 kts | 9° |
| 2026-04-19 05:49 | 19.85440 | -87.04368 | 37018 ft | 478 kts | 9° |
| 2026-04-19 05:49 | 19.92057 | -87.02979 | 37019 ft | 478 kts | 9° |
| 2026-04-19 05:50 | 19.98717 | -87.01578 | 37019 ft | 478 kts | 9° |
| 2026-04-19 05:50 | 20.05294 | -87.00195 | 37019 ft | 479 kts | 9° |
| 2026-04-19 05:51 | 20.11845 | -86.98833 | 37017 ft | 479 kts | 9° |
| 2026-04-19 05:51 | 20.18456 | -86.97492 | 37017 ft | 479 kts | 9° |
| 2026-04-19 05:52 | 20.25027 | -86.96157 | 37017 ft | 479 kts | 9° |
| 2026-04-19 05:52 | 20.31715 | -86.94797 | 37018 ft | 479 kts | 9° |
| 2026-04-19 05:53 | 20.38342 | -86.93448 | 37018 ft | 480 kts | 9° |
| 2026-04-19 05:53 | 20.44964 | -86.92099 | 37018 ft | 480 kts | 9° |
| 2026-04-19 05:54 | 20.51528 | -86.90881 | 37020 ft | 479 kts | 4° |
| 2026-04-19 05:54 | 20.58174 | -86.90193 | 37018 ft | 479 kts | 4° |
| 2026-04-19 05:55 | 20.64815 | -86.89507 | 37019 ft | 479 kts | 4° |
| 2026-04-19 05:55 | 20.71475 | -86.88812 | 37019 ft | 479 kts | 3° |
| 2026-04-19 05:56 | 20.78147 | -86.88126 | 37019 ft | 479 kts | 4° |
| 2026-04-19 05:56 | 20.84825 | -86.87416 | 37019 ft | 479 kts | 3° |
| 2026-04-19 05:57 | 20.91538 | -86.86744 | 37019 ft | 479 kts | 3° |
| 2026-04-19 05:57 | 20.98264 | -86.86055 | 37020 ft | 479 kts | 3° |
| 2026-04-19 05:58 | 21.04917 | -86.85009 | 37023 ft | 481 kts | 9° |
| 2026-04-19 05:58 | 21.11510 | -86.83524 | 37019 ft | 479 kts | 8° |
| 2026-04-19 05:59 | 21.18071 | -86.82041 | 37019 ft | 479 kts | 8° |
| 2026-04-19 05:59 | 21.24717 | -86.80531 | 37019 ft | 479 kts | 8° |
| 2026-04-19 06:00 | 21.31294 | -86.79034 | 37019 ft | 479 kts | 8° |
| 2026-04-19 06:00 | 21.37819 | -86.77543 | 37016 ft | 467 kts | 8° |
| 2026-04-19 06:01 | 21.44166 | -86.76093 | 37016 ft | 456 kts | 8° |
| 2026-04-19 06:01 | 21.50406 | -86.74665 | 37017 ft | 446 kts | 8° |
| 2026-04-19 06:02 | 21.56499 | -86.73270 | 37017 ft | 437 kts | 7° |
| 2026-04-19 06:02 | 21.62507 | -86.71892 | 37018 ft | 429 kts | 7° |
| 2026-04-19 06:03 | 21.68412 | -86.70538 | 37018 ft | 422 kts | 7° |
| 2026-04-19 06:03 | 21.74269 | -86.69193 | 37018 ft | 415 kts | 7° |
| 2026-04-19 06:04 | 21.80007 | -86.67875 | 37019 ft | 409 kts | 7° |
| 2026-04-19 06:04 | 21.85692 | -86.66567 | 37019 ft | 404 kts | 7° |
| 2026-04-19 06:05 | 21.91305 | -86.65276 | 37019 ft | 399 kts | 7° |
| 2026-04-19 06:05 | 21.96813 | -86.64008 | 37020 ft | 394 kts | 7° |
| 2026-04-19 06:06 | 22.02256 | -86.62755 | 37020 ft | 390 kts | 7° |
| 2026-04-19 06:06 | 22.07638 | -86.61513 | 37021 ft | 388 kts | 7° |
| 2026-04-19 06:07 | 22.13043 | -86.60268 | 37023 ft | 391 kts | 7° |
| 2026-04-19 06:07 | 22.18516 | -86.59005 | 37023 ft | 396 kts | 7° |
| 2026-04-19 06:08 | 22.24030 | -86.57731 | 37023 ft | 401 kts | 7° |
| 2026-04-19 06:08 | 22.29645 | -86.56432 | 37023 ft | 405 kts | 7° |
| 2026-04-19 06:09 | 22.35300 | -86.54908 | 37032 ft | 414 kts | 19° |
| 2026-04-19 06:09 | 22.37871 | -86.53333 | 37046 ft | 422 kts | 34° |
| 2026-04-19 06:09 | 22.40050 | -86.51091 | 37045 ft | 428 kts | 48° |
| 2026-04-19 06:09 | 22.41800 | -86.48404 | 37036 ft | 433 kts | 59° |
| 2026-04-19 06:10 | 22.43112 | -86.45342 | 37036 ft | 436 kts | 69° |
| 2026-04-19 06:10 | 22.45384 | -86.39076 | 37025 ft | 439 kts | 64° |
| 2026-04-19 06:11 | 22.47976 | -86.32907 | 37022 ft | 442 kts | 64° |
| 2026-04-19 06:11 | 22.50664 | -86.26705 | 37033 ft | 444 kts | 63° |
| 2026-04-19 06:12 | 22.54709 | -86.17442 | 37059 ft | 446 kts | 63° |
| 2026-04-19 06:12 | 22.57427 | -86.11220 | 37074 ft | 448 kts | 63° |
| 2026-04-19 06:13 | 22.60147 | -86.04986 | 37074 ft | 450 kts | 63° |
| 2026-04-19 06:13 | 22.62876 | -85.98775 | 37075 ft | 451 kts | 61° |
| 2026-04-19 06:14 | 22.65828 | -85.92641 | 37075 ft | 452 kts | 61° |
| 2026-04-19 06:14 | 22.68778 | -85.86491 | 37076 ft | 454 kts | 61° |
| 2026-04-19 06:15 | 22.71746 | -85.80291 | 37076 ft | 455 kts | 61° |
| 2026-04-19 06:15 | 22.74742 | -85.74023 | 37077 ft | 457 kts | 61° |
| 2026-04-19 06:16 | 22.77710 | -85.67807 | 37077 ft | 458 kts | 61° |
| 2026-04-19 06:16 | 22.80694 | -85.61548 | 37078 ft | 459 kts | 61° |
| 2026-04-19 06:17 | 22.83679 | -85.55280 | 37078 ft | 460 kts | 61° |
| 2026-04-19 06:17 | 22.86688 | -85.48959 | 37079 ft | 461 kts | 61° |
| 2026-04-19 06:18 | 22.89704 | -85.42615 | 37079 ft | 462 kts | 60° |
| 2026-04-19 06:18 | 22.92726 | -85.36249 | 37080 ft | 463 kts | 60° |
| 2026-04-19 06:19 | 22.95737 | -85.29901 | 37071 ft | 464 kts | 61° |
| 2026-04-19 06:19 | 22.98776 | -85.23484 | 37071 ft | 465 kts | 60° |
| 2026-04-19 06:20 | 23.01788 | -85.17114 | 37072 ft | 465 kts | 60° |
| 2026-04-19 06:20 | 23.04824 | -85.10688 | 37072 ft | 466 kts | 60° |
| 2026-04-19 06:21 | 23.07854 | -85.04266 | 37074 ft | 467 kts | 60° |
| 2026-04-19 06:21 | 23.10889 | -84.97825 | 37074 ft | 468 kts | 60° |
| 2026-04-19 06:22 | 23.13912 | -84.91400 | 37075 ft | 469 kts | 60° |
| 2026-04-19 06:22 | 23.16967 | -84.84899 | 37076 ft | 470 kts | 60° |
| 2026-04-19 06:23 | 23.20000 | -84.78436 | 37076 ft | 471 kts | 60° |
| 2026-04-19 06:23 | 23.23037 | -84.71916 | 37077 ft | 472 kts | 60° |
| 2026-04-19 06:24 | 23.26060 | -84.65399 | 37078 ft | 473 kts | 60° |
| 2026-04-19 06:24 | 23.29102 | -84.58834 | 37079 ft | 474 kts | 60° |
| 2026-04-19 06:25 | 23.32130 | -84.52286 | 37079 ft | 475 kts | 60° |
| 2026-04-19 06:25 | 23.35160 | -84.45730 | 37080 ft | 476 kts | 60° |
| 2026-04-19 06:26 | 23.38200 | -84.39140 | 37081 ft | 476 kts | 60° |
| 2026-04-19 06:26 | 23.41253 | -84.32513 | 37070 ft | 477 kts | 61° |
| 2026-04-19 06:27 | 23.44289 | -84.25916 | 37071 ft | 477 kts | 61° |
| 2026-04-19 06:27 | 23.47334 | -84.19289 | 37072 ft | 477 kts | 61° |
| 2026-04-19 06:28 | 23.50363 | -84.12688 | 37072 ft | 477 kts | 61° |
| 2026-04-19 06:28 | 23.53387 | -84.06087 | 37073 ft | 477 kts | 61° |
| 2026-04-19 06:29 | 23.56424 | -83.99451 | 37074 ft | 477 kts | 61° |
| 2026-04-19 06:29 | 23.59459 | -83.92808 | 37075 ft | 478 kts | 61° |
| 2026-04-19 06:30 | 23.62495 | -83.86155 | 37075 ft | 478 kts | 61° |
| 2026-04-19 06:30 | 23.65552 | -83.79459 | 37076 ft | 478 kts | 61° |
| 2026-04-19 06:31 | 23.68598 | -83.72769 | 37077 ft | 479 kts | 61° |
| 2026-04-19 06:31 | 23.71635 | -83.66090 | 37078 ft | 479 kts | 61° |
| 2026-04-19 06:32 | 23.74666 | -83.59416 | 37078 ft | 479 kts | 61° |
| 2026-04-19 06:32 | 23.77707 | -83.52709 | 37079 ft | 480 kts | 61° |
| 2026-04-19 06:33 | 23.80728 | -83.46037 | 37079 ft | 479 kts | 61° |
| 2026-04-19 06:33 | 23.83738 | -83.39378 | 37078 ft | 471 kts | 61° |
| 2026-04-19 06:34 | 23.86679 | -83.32866 | 37068 ft | 463 kts | 61° |
| 2026-04-19 06:34 | 23.89551 | -83.26496 | 37069 ft | 456 kts | 61° |
| 2026-04-19 06:35 | 23.92400 | -83.20170 | 37070 ft | 450 kts | 61° |
| 2026-04-19 06:35 | 23.95250 | -83.13834 | 37073 ft | 454 kts | 61° |
| 2026-04-19 06:36 | 23.98089 | -83.07512 | 37074 ft | 457 kts | 61° |
| 2026-04-19 06:36 | 24.01465 | -83.01437 | 37078 ft | 455 kts | 51° |
| 2026-04-19 06:37 | 24.05159 | -82.95695 | 37076 ft | 458 kts | 51° |
| 2026-04-19 06:37 | 24.09089 | -82.90020 | 37078 ft | 459 kts | 50° |
| 2026-04-19 06:38 | 24.12897 | -82.84311 | 37080 ft | 462 kts | 51° |
| 2026-04-19 06:38 | 24.16688 | -82.78483 | 37084 ft | 464 kts | 51° |
| 2026-04-19 06:39 | 24.20518 | -82.72549 | 37085 ft | 466 kts | 51° |
| 2026-04-19 06:39 | 24.24309 | -82.66658 | 36959 ft | 459 kts | 51° |
| 2026-04-19 06:40 | 24.26190 | -82.63731 | 35968 ft | 461 kts | 51° |
| 2026-04-19 06:40 | 24.28050 | -82.60834 | 35408 ft | 454 kts | 51° |
| 2026-04-19 06:40 | 24.29915 | -82.57930 | 34683 ft | 450 kts | 51° |
| 2026-04-19 06:40 | 24.31737 | -82.55090 | 34023 ft | 446 kts | 51° |
| 2026-04-19 06:41 | 24.33524 | -82.52303 | 33395 ft | 441 kts | 51° |
| 2026-04-19 06:41 | 24.35319 | -82.49502 | 32922 ft | 440 kts | 51° |
| 2026-04-19 06:41 | 24.37139 | -82.46665 | 32689 ft | 446 kts | 51° |
| 2026-04-19 06:41 | 24.38950 | -82.43835 | 32453 ft | 453 kts | 51° |
| 2026-04-19 06:42 | 24.40795 | -82.40953 | 32215 ft | 459 kts | 51° |
| 2026-04-19 06:42 | 24.42663 | -82.38032 | 31977 ft | 464 kts | 52° |
| 2026-04-19 06:42 | 24.44543 | -82.35090 | 31740 ft | 468 kts | 52° |
| 2026-04-19 06:42 | 24.46445 | -82.32112 | 31485 ft | 472 kts | 52° |
| 2026-04-19 06:43 | 24.48356 | -82.29117 | 31231 ft | 476 kts | 52° |
| 2026-04-19 06:43 | 24.50303 | -82.26063 | 30973 ft | 479 kts | 52° |
| 2026-04-19 06:43 | 24.52265 | -82.22984 | 30715 ft | 481 kts | 52° |
| 2026-04-19 06:43 | 24.54223 | -82.19912 | 30459 ft | 483 kts | 52° |
| 2026-04-19 06:44 | 24.56184 | -82.16830 | 30204 ft | 485 kts | 52° |
| 2026-04-19 06:44 | 24.58164 | -82.13718 | 29947 ft | 486 kts | 52° |
| 2026-04-19 06:44 | 24.60168 | -82.10567 | 29688 ft | 487 kts | 52° |
| 2026-04-19 06:44 | 24.62139 | -82.07465 | 29434 ft | 488 kts | 52° |
| 2026-04-19 06:45 | 24.64103 | -82.04371 | 29181 ft | 489 kts | 52° |
| 2026-04-19 06:45 | 24.66072 | -82.01267 | 28927 ft | 487 kts | 52° |
| 2026-04-19 06:45 | 24.68049 | -81.98148 | 28671 ft | 485 kts | 52° |
| 2026-04-19 06:45 | 24.70018 | -81.95042 | 28415 ft | 483 kts | 52° |
| 2026-04-19 06:46 | 24.71990 | -81.91928 | 28157 ft | 481 kts | 52° |
| 2026-04-19 06:46 | 24.73962 | -81.88813 | 27899 ft | 479 kts | 52° |
| 2026-04-19 06:46 | 24.75903 | -81.85745 | 27645 ft | 477 kts | 52° |
| 2026-04-19 06:46 | 24.77826 | -81.82703 | 27391 ft | 475 kts | 52° |
| 2026-04-19 06:47 | 24.79762 | -81.79637 | 27136 ft | 473 kts | 52° |
| 2026-04-19 06:47 | 24.81670 | -81.76616 | 26883 ft | 470 kts | 52° |
| 2026-04-19 06:47 | 24.83581 | -81.73587 | 26629 ft | 468 kts | 52° |
| 2026-04-19 06:47 | 24.85499 | -81.70546 | 26373 ft | 466 kts | 52° |
| 2026-04-19 06:48 | 24.87405 | -81.67520 | 26118 ft | 464 kts | 52° |
| 2026-04-19 06:48 | 24.89267 | -81.64564 | 25868 ft | 462 kts | 52° |
| 2026-04-19 06:48 | 24.91161 | -81.61540 | 25455 ft | 463 kts | 54° |
| 2026-04-19 06:48 | 24.93005 | -81.58543 | 24920 ft | 455 kts | 52° |
| 2026-04-19 06:49 | 24.94843 | -81.55660 | 24392 ft | 450 kts | 52° |
| 2026-04-19 06:49 | 24.96671 | -81.52770 | 23862 ft | 447 kts | 52° |
| 2026-04-19 06:49 | 24.98469 | -81.49914 | 23336 ft | 442 kts | 52° |
| 2026-04-19 06:49 | 25.00259 | -81.47066 | 22810 ft | 437 kts | 52° |
| 2026-04-19 06:50 | 25.02007 | -81.44280 | 22293 ft | 432 kts | 52° |
| 2026-04-19 06:50 | 25.03756 | -81.41491 | 21773 ft | 426 kts | 52° |
| 2026-04-19 06:50 | 25.05476 | -81.38745 | 21258 ft | 421 kts | 52° |
| 2026-04-19 06:50 | 25.07143 | -81.36084 | 20758 ft | 416 kts | 52° |
| 2026-04-19 06:51 | 25.08789 | -81.33453 | 20257 ft | 411 kts | 52° |
| 2026-04-19 06:51 | 25.10427 | -81.30835 | 19757 ft | 405 kts | 52° |
| 2026-04-19 06:51 | 25.12047 | -81.28244 | 19267 ft | 400 kts | 53° |
| 2026-04-19 06:51 | 25.13636 | -81.25701 | 18785 ft | 397 kts | 53° |
| 2026-04-19 06:52 | 25.15228 | -81.23151 | 18302 ft | 394 kts | 53° |
| 2026-04-19 06:52 | 25.16791 | -81.20647 | 17827 ft | 390 kts | 53° |
| 2026-04-19 06:52 | 25.18352 | -81.18144 | 17350 ft | 387 kts | 53° |
| 2026-04-19 06:52 | 25.19909 | -81.15646 | 16853 ft | 384 kts | 53° |
| 2026-04-19 06:53 | 25.21470 | -81.13142 | 16357 ft | 381 kts | 53° |
| 2026-04-19 06:53 | 25.22986 | -81.10707 | 15878 ft | 378 kts | 54° |
| 2026-04-19 06:53 | 25.24517 | -81.08247 | 15397 ft | 377 kts | 54° |
| 2026-04-19 06:53 | 25.26052 | -81.05780 | 14916 ft | 374 kts | 54° |
| 2026-04-19 06:54 | 25.27569 | -81.03340 | 14442 ft | 372 kts | 54° |
| 2026-04-19 06:54 | 25.29073 | -81.00919 | 13974 ft | 370 kts | 54° |
| 2026-04-19 06:54 | 25.30643 | -80.98517 | 13503 ft | 368 kts | 52° |
| 2026-04-19 06:54 | 25.32185 | -80.96204 | 13048 ft | 365 kts | 53° |
| 2026-04-19 06:55 | 25.33699 | -80.93847 | 12591 ft | 363 kts | 54° |
| 2026-04-19 06:55 | 25.35198 | -80.91473 | 12135 ft | 360 kts | 54° |
| 2026-04-19 06:55 | 25.36667 | -80.89123 | 11686 ft | 358 kts | 55° |
| 2026-04-19 06:55 | 25.38263 | -80.86912 | 11270 ft | 351 kts | 42° |
| 2026-04-19 06:56 | 25.40201 | -80.85409 | 11172 ft | 320 kts | 26° |
| 2026-04-19 06:56 | 25.42224 | -80.84385 | 11112 ft | 298 kts | 23° |
| 2026-04-19 06:56 | 25.44178 | -80.83440 | 11127 ft | 299 kts | 22° |
| 2026-04-19 06:56 | 25.46199 | -80.82587 | 10829 ft | 298 kts | 18° |
| 2026-04-19 06:57 | 25.48185 | -80.81838 | 10476 ft | 293 kts | 18° |
| 2026-04-19 06:57 | 25.50164 | -80.81089 | 10137 ft | 288 kts | 18° |
| 2026-04-19 06:57 | 25.52086 | -80.80361 | 9820 ft | 278 kts | 18° |
| 2026-04-19 06:57 | 25.53971 | -80.79650 | 9498 ft | 277 kts | 18° |
| 2026-04-19 06:58 | 25.55856 | -80.78938 | 9174 ft | 275 kts | 18° |
| 2026-04-19 06:58 | 25.57721 | -80.78233 | 8855 ft | 274 kts | 18° |
| 2026-04-19 06:58 | 25.59589 | -80.77528 | 8537 ft | 272 kts | 18° |
| 2026-04-19 06:58 | 25.61427 | -80.76833 | 8225 ft | 271 kts | 18° |
| 2026-04-19 06:59 | 25.63255 | -80.76136 | 7913 ft | 269 kts | 20° |
| 2026-04-19 06:59 | 25.64875 | -80.74966 | 7612 ft | 269 kts | 46° |
| 2026-04-19 06:59 | 25.66110 | -80.73295 | 7271 ft | 269 kts | 51° |
| 2026-04-19 06:59 | 25.67290 | -80.71612 | 6920 ft | 267 kts | 51° |
| 2026-04-19 07:00 | 25.68447 | -80.69947 | 6579 ft | 265 kts | 51° |
| 2026-04-19 07:00 | 25.69603 | -80.68270 | 6238 ft | 264 kts | 52° |
| 2026-04-19 07:00 | 25.70742 | -80.66612 | 5904 ft | 262 kts | 52° |
| 2026-04-19 07:00 | 25.71886 | -80.64945 | 5570 ft | 261 kts | 52° |
| 2026-04-19 07:01 | 25.73009 | -80.63304 | 5243 ft | 259 kts | 52° |
| 2026-04-19 07:01 | 25.74132 | -80.61661 | 4917 ft | 258 kts | 52° |
| 2026-04-19 07:01 | 25.75252 | -80.60024 | 4592 ft | 256 kts | 52° |
| 2026-04-19 07:01 | 25.76370 | -80.58387 | 4269 ft | 255 kts | 52° |
| 2026-04-19 07:02 | 25.77347 | -80.56718 | 3942 ft | 245 kts | 70° |
| 2026-04-19 07:02 | 25.77598 | -80.54843 | 3733 ft | 232 kts | 86° |
| 2026-04-19 07:02 | 25.77678 | -80.53064 | 3557 ft | 219 kts | 86° |
| 2026-04-19 07:02 | 25.77761 | -80.51387 | 3408 ft | 205 kts | 86° |
| 2026-04-19 07:03 | 25.77835 | -80.49796 | 3110 ft | 193 kts | 86° |
| 2026-04-19 07:03 | 25.77901 | -80.48333 | 2955 ft | 176 kts | 86° |
| 2026-04-19 07:03 | 25.77963 | -80.46920 | 2864 ft | 179 kts | 86° |
| 2026-04-19 07:03 | 25.78024 | -80.45529 | 2581 ft | 175 kts | 86° |
| 2026-04-19 07:04 | 25.78084 | -80.44135 | 2317 ft | 175 kts | 86° |
| 2026-04-19 07:04 | 25.78141 | -80.42780 | 2078 ft | 174 kts | 86° |
| 2026-04-19 07:04 | 25.78198 | -80.41442 | 1855 ft | 173 kts | 86° |
| 2026-04-19 07:04 | 25.78253 | -80.40145 | 1634 ft | 173 kts | 86° |
| 2026-04-19 07:05 | 25.78306 | -80.38874 | 1415 ft | 172 kts | 86° |
| 2026-04-19 07:05 | 25.78360 | -80.37590 | 1192 ft | 171 kts | 86° |
| 2026-04-19 07:05 | 25.78415 | -80.36276 | 963 ft | 171 kts | 86° |
| 2026-04-19 07:05 | 25.78468 | -80.35011 | 747 ft | 170 kts | 88° |